Time;durP1;ratioP1;P1;durP2;ratioP2;P2;SDS_P1;SDS_P2;PMS_P1;PMS_P2;Temp;Humidity;BMP_temperature;BMP_pressure;BME280_temperature;BME280_humidity;BME280_pressure;Samples;Min_cycle;Max_cycle;Signal;HPM_P1;HPM_P2
2023/12/28 00:01:37;;;;;;;5.85;1.65;;;9.60;99.90;;;;;;4941537;28;20028;-93
2023/12/28 00:04:02;;;;;;;5.20;1.25;;;9.60;99.90;;;;;;4945210;28;20118;-93
2023/12/28 00:06:29;;;;;;;2.83;1.42;;;9.70;99.90;;;;;;4948086;28;20027;-93
2023/12/28 00:08:55;;;;;;;2.75;1.10;;;9.70;99.90;;;;;;4944024;28;20038;-89
2023/12/28 00:11:23;;;;;;;3.15;1.48;;;9.70;99.90;;;;;;4945632;28;20111;-92
2023/12/28 00:13:49;;;;;;;3.85;1.33;;;9.70;99.90;;;;;;4936345;28;20039;-93
2023/12/28 00:16:14;;;;;;;3.45;1.23;;;9.70;99.90;;;;;;4949550;28;20039;-92
2023/12/28 00:18:41;;;;;;;3.35;1.10;;;9.70;99.90;;;;;;4947060;28;20054;-93
2023/12/28 00:21:06;;;;;;;3.00;1.17;;;9.80;99.90;;;;;;4953563;28;20112;-94
2023/12/28 00:23:32;;;;;;;3.55;1.25;;;9.70;99.90;;;;;;4965990;28;20066;-95
2023/12/28 00:25:58;;;;;;;4.05;1.35;;;9.80;99.90;;;;;;4951585;28;20031;-95
2023/12/28 00:28:23;;;;;;;3.45;1.30;;;9.80;99.90;;;;;;4952313;28;20023;-93
2023/12/28 00:30:50;;;;;;;5.80;1.75;;;9.80;99.90;;;;;;4947880;28;20035;-93
2023/12/28 00:33:19;;;;;;;2.72;1.25;;;9.80;99.90;;;;;;4947044;28;20042;-91
2023/12/28 00:35:44;;;;;;;4.22;1.27;;;9.80;99.90;;;;;;4948989;28;20038;-92
2023/12/28 00:38:14;;;;;;;2.58;1.20;;;9.90;99.90;;;;;;4951640;28;20039;-96
2023/12/28 00:40:42;;;;;;;2.58;1.20;;;9.90;99.90;;;;;;4964430;28;20031;-91
2023/12/28 00:43:08;;;;;;;8.18;1.40;;;9.90;99.90;;;;;;4965828;28;20114;-95
2023/12/28 00:45:33;;;;;;;4.90;1.48;;;9.90;99.90;;;;;;4963246;28;20070;-92
2023/12/28 00:47:59;;;;;;;2.42;1.23;;;9.90;99.90;;;;;;4969285;28;20034;-93
2023/12/28 00:50:31;;;;;;;2.13;0.95;;;10.00;99.90;;;;;;4949437;28;20044;-95
2023/12/28 00:52:57;;;;;;;3.17;1.17;;;9.90;99.90;;;;;;4947678;28;20047;-93
2023/12/28 00:55:22;;;;;;;2.53;1.20;;;9.90;99.90;;;;;;4966575;28;20574;-94
2023/12/28 00:57:51;;;;;;;3.80;1.63;;;9.90;99.90;;;;;;4950556;28;20051;-93
2023/12/28 01:00:16;;;;;;;;;;;9.90;99.90;;;;;;4950928;28;20039;-95
2023/12/28 01:02:46;;;;;;;5.82;1.55;;;9.90;99.90;;;;;;4949443;28;19921;-94
2023/12/28 01:05:13;;;;;;;5.00;1.42;;;9.90;99.90;;;;;;4950808;28;20050;-93
2023/12/28 01:07:41;;;;;;;3.83;1.13;;;9.90;99.90;;;;;;4947511;28;20211;-93
2023/12/28 01:10:07;;;;;;;;;;;9.90;99.90;;;;;;4948908;28;20102;-92
2023/12/28 01:12:33;;;;;;;4.03;1.30;;;10.00;99.90;;;;;;4948713;28;19945;-95
2023/12/28 01:14:59;;;;;;;2.17;1.13;;;9.90;99.90;;;;;;4964575;28;23094;-93
2023/12/28 01:17:24;;;;;;;6.90;1.38;;;9.90;99.90;;;;;;4949784;28;20039;-93
2023/12/28 01:19:50;;;;;;;3.58;1.20;;;9.90;99.90;;;;;;4969392;28;20055;-93
2023/12/28 01:22:15;;;;;;;5.60;1.40;;;9.80;99.90;;;;;;4953384;28;20034;-91
2023/12/28 01:24:49;;;;;;;7.68;2.00;;;9.80;99.90;;;;;;4954767;28;20043;-92
2023/12/28 01:27:15;;;;;;;5.75;1.50;;;9.90;99.90;;;;;;4950999;28;20031;-94
2023/12/28 01:29:41;;;;;;;4.82;1.35;;;9.90;99.90;;;;;;4953405;28;20051;-94
2023/12/28 01:32:06;;;;;;;1.80;1.05;;;9.80;99.90;;;;;;4953442;28;20114;-92
2023/12/28 01:34:32;;;;;;;2.20;1.10;;;9.80;99.90;;;;;;4958983;28;20035;-94
2023/12/28 01:36:58;;;;;;;7.90;1.40;;;9.80;99.90;;;;;;4959443;28;20245;-94
2023/12/28 01:39:23;;;;;;;2.00;0.85;;;9.80;99.90;;;;;;4956273;28;20167;-94
2023/12/28 01:41:49;;;;;;;2.22;1.10;;;9.80;99.90;;;;;;4966555;28;20070;-96
2023/12/28 01:44:15;;;;;;;4.18;1.48;;;9.90;99.90;;;;;;4957551;28;20020;-93
2023/12/28 01:46:42;;;;;;;2.30;1.08;;;9.90;99.90;;;;;;4965209;28;20465;-91
2023/12/28 01:49:08;;;;;;;3.40;1.15;;;9.90;99.90;;;;;;4951014;28;20033;-92
2023/12/28 01:51:34;;;;;;;2.67;1.20;;;9.90;99.90;;;;;;4958101;28;20062;-95
2023/12/28 01:54:04;;;;;;;4.72;1.38;;;9.80;99.90;;;;;;4974405;28;20037;-93
2023/12/28 01:56:30;;;;;;;6.15;1.33;;;9.80;99.90;;;;;;4953609;28;20032;-93
2023/12/28 01:58:56;;;;;;;4.32;1.30;;;9.80;99.90;;;;;;4960181;28;20026;-93
2023/12/28 02:01:21;;;;;;;2.83;1.25;;;9.80;99.90;;;;;;4957610;28;20085;-92
2023/12/28 02:03:50;;;;;;;2.83;1.20;;;9.90;99.90;;;;;;4957059;28;20112;-91
2023/12/28 02:06:16;;;;;;;1.98;1.08;;;9.80;99.90;;;;;;4949145;28;20036;-92
2023/12/28 02:08:42;;;;;;;2.55;1.35;;;9.80;99.90;;;;;;4939099;28;20043;-92
2023/12/28 02:11:07;;;;;;;4.88;1.00;;;9.80;99.90;;;;;;4954334;28;20050;-91
2023/12/28 02:13:36;;;;;;;3.40;1.25;;;9.90;99.90;;;;;;4951683;28;20143;-92
2023/12/28 02:16:26;;;;;;;2.00;1.00;;;9.90;99.90;;;;;;4952350;28;20035;-94
2023/12/28 02:19:00;;;;;;;2.88;0.80;;;9.90;99.90;;;;;;4941515;28;20123;-93
2023/12/28 02:21:27;;;;;;;6.60;1.70;;;9.90;99.90;;;;;;4950641;28;20071;-92
2023/12/28 02:23:52;;;;;;;3.38;1.20;;;9.90;99.90;;;;;;4957047;28;20154;-92
2023/12/28 02:26:18;;;;;;;3.33;0.98;;;9.90;99.90;;;;;;4951675;28;20047;-93
2023/12/28 02:28:45;;;;;;;4.93;1.70;;;9.90;99.90;;;;;;4952938;28;20077;-93
2023/12/28 02:31:45;;;;;;;3.95;1.35;;;9.90;99.90;;;;;;4966227;28;20200;-93
2023/12/28 02:34:20;;;;;;;3.90;1.38;;;9.90;99.90;;;;;;4950927;28;20048;-92
2023/12/28 02:36:46;;;;;;;3.55;1.20;;;9.80;99.90;;;;;;4935739;28;20071;-93
2023/12/28 02:39:14;;;;;;;3.78;1.45;;;9.80;99.90;;;;;;4964012;28;20046;-92
2023/12/28 02:41:43;;;;;;;2.80;1.40;;;9.80;99.90;;;;;;4946900;28;20097;-92
2023/12/28 02:44:16;;;;;;;2.13;1.35;;;9.80;99.90;;;;;;4965915;28;21081;-92
2023/12/28 02:46:42;;;;;;;4.90;1.55;;;9.80;99.90;;;;;;4968956;28;20023;-96
2023/12/28 02:49:10;;;;;;;4.00;1.17;;;9.90;99.90;;;;;;4952668;28;20042;-93
2023/12/28 02:51:36;;;;;;;3.17;1.35;;;9.90;99.90;;;;;;4948480;28;20055;-92
2023/12/28 02:54:01;;;;;;;2.90;1.45;;;9.90;99.90;;;;;;4967189;28;20046;-93
2023/12/28 02:56:36;;;;;;;5.78;1.73;;;9.90;99.90;;;;;;4963971;28;20059;-94
2023/12/28 02:59:04;;;;;;;3.58;1.65;;;9.90;99.90;;;;;;4952377;28;20027;-95
2023/12/28 03:01:30;;;;;;;;;;;9.90;99.90;;;;;;4954754;28;20044;-94
2023/12/28 03:03:55;;;;;;;5.22;1.40;;;9.90;99.90;;;;;;4954832;28;19927;-94
2023/12/28 03:06:21;;;;;;;3.78;1.67;;;9.90;99.90;;;;;;4952688;28;20031;-96
2023/12/28 03:08:46;;;;;;;7.57;2.10;;;9.90;99.90;;;;;;4954420;28;20035;-96
2023/12/28 03:11:12;;;;;;;4.97;1.45;;;9.90;99.90;;;;;;4948339;28;20040;-93
2023/12/28 03:13:38;;;;;;;5.55;1.58;;;9.90;99.90;;;;;;4950133;28;21898;-92
2023/12/28 03:16:09;;;;;;;5.80;1.75;;;9.90;99.90;;;;;;4952478;28;20023;-96
2023/12/28 03:18:35;;;;;;;3.20;1.40;;;9.90;99.90;;;;;;4952085;28;20036;-93
2023/12/28 03:21:00;;;;;;;6.07;1.95;;;9.90;99.90;;;;;;4968298;28;20204;-95
2023/12/28 03:23:26;;;;;;;3.78;1.48;;;9.80;99.90;;;;;;4965852;28;20035;-94
2023/12/28 03:25:52;;;;;;;6.38;1.65;;;9.90;99.90;;;;;;4955836;28;20030;-94
2023/12/28 03:28:18;;;;;;;2.50;1.33;;;9.90;99.90;;;;;;4950711;28;20034;-93
2023/12/28 03:30:44;;;;;;;3.17;1.77;;;9.90;99.90;;;;;;4953252;28;20043;-93
2023/12/28 03:33:09;;;;;;;5.93;1.70;;;9.90;99.90;;;;;;4952982;28;20036;-93
2023/12/28 03:35:35;;;;;;;6.00;1.83;;;10.00;99.90;;;;;;4955021;28;20097;-93
2023/12/28 03:38:00;;;;;;;4.18;1.95;;;9.90;99.90;;;;;;4950949;28;20054;-93
2023/12/28 03:40:29;;;;;;;4.13;1.83;;;9.90;99.90;;;;;;4954869;28;20155;-93
2023/12/28 03:42:55;;;;;;;3.47;1.40;;;10.00;99.90;;;;;;4952619;28;20035;-94
2023/12/28 03:45:21;;;;;;;4.13;1.50;;;10.00;99.90;;;;;;4949457;28;20035;-92
2023/12/28 03:47:46;;;;;;;3.38;1.85;;;10.00;99.90;;;;;;4958543;28;20026;-95
2023/12/28 03:50:15;;;;;;;4.53;1.67;;;10.00;99.90;;;;;;4969814;28;20049;-95
2023/12/28 03:52:41;;;;;;;5.88;1.60;;;10.00;99.90;;;;;;4965367;28;20095;-94
2023/12/28 03:55:11;;;;;;;3.70;1.77;;;10.10;99.90;;;;;;4954896;28;20105;-96
2023/12/28 03:57:37;;;;;;;4.03;1.67;;;10.10;99.90;;;;;;4949517;28;20091;-93
2023/12/28 04:00:03;;;;;;;2.95;1.52;;;10.10;99.90;;;;;;4950022;28;20020;-94
2023/12/28 04:02:31;;;;;;;2.30;1.13;;;10.10;99.90;;;;;;4965857;28;20360;-95
2023/12/28 04:04:58;;;;;;;1.30;1.20;;;10.20;99.90;;;;;;4955201;28;20238;-92
2023/12/28 04:07:24;;;;;;;1.83;1.52;;;10.20;99.90;;;;;;4955439;28;20069;-93
2023/12/28 04:09:50;;;;;;;3.38;1.50;;;10.30;99.90;;;;;;4955294;28;20070;-93
2023/12/28 04:12:15;;;;;;;3.20;1.42;;;10.20;99.90;;;;;;4958843;28;20027;-93
2023/12/28 04:14:41;;;;;;;4.70;1.85;;;10.20;99.90;;;;;;4954999;28;20039;-93
2023/12/28 04:17:07;;;;;;;2.50;1.63;;;10.20;99.90;;;;;;4941740;28;20035;-93
2023/12/28 04:19:32;;;;;;;4.07;2.05;;;10.30;99.90;;;;;;4957774;28;20046;-96
2023/12/28 04:22:01;;;;;;;2.78;1.20;;;10.20;99.90;;;;;;4958674;28;20457;-95
2023/12/28 04:24:26;;;;;;;3.20;1.60;;;10.30;99.90;;;;;;4957260;28;20032;-95
2023/12/28 04:26:52;;;;;;;6.45;1.75;;;10.30;99.90;;;;;;4955945;28;20037;-93
2023/12/28 04:29:18;;;;;;;2.45;1.02;;;10.30;99.90;;;;;;4954616;28;20197;-93
2023/12/28 04:31:43;;;;;;;6.05;1.77;;;10.30;99.90;;;;;;4960555;28;20035;-94
2023/12/28 04:34:16;;;;;;;4.53;1.42;;;10.30;99.90;;;;;;4963459;28;20042;-94
2023/12/28 04:36:44;;;;;;;2.60;1.50;;;10.40;99.90;;;;;;4961199;28;20104;-95
2023/12/28 04:39:10;;;;;;;;;;;10.40;99.90;;;;;;4958327;28;20040;-93
2023/12/28 04:41:36;;;;;;;3.40;1.30;;;10.40;99.90;;;;;;4959798;28;19920;-93
2023/12/28 04:44:01;;;;;;;2.17;1.55;;;10.40;99.90;;;;;;4959389;28;20024;-93
2023/12/28 04:46:27;;;;;;;3.75;1.42;;;10.40;99.90;;;;;;4959387;28;20036;-90
2023/12/28 04:48:53;;;;;;;5.40;1.30;;;10.50;99.90;;;;;;4973010;28;20051;-93
2023/12/28 04:51:20;;;;;;;4.57;1.67;;;10.50;99.90;;;;;;4957941;28;20039;-94
2023/12/28 04:53:46;;;;;;;3.83;1.63;;;10.50;99.90;;;;;;4960294;28;20024;-94
2023/12/28 04:56:12;;;;;;;2.88;1.30;;;10.50;99.90;;;;;;4951670;28;20519;-95
2023/12/28 04:58:38;;;;;;;4.20;1.60;;;10.50;99.90;;;;;;4960327;28;20095;-94
2023/12/28 05:01:03;;;;;;;2.53;1.55;;;10.50;99.90;;;;;;4974135;28;20039;-94
2023/12/28 05:03:32;;;;;;;4.45;1.65;;;10.50;99.90;;;;;;4960029;28;20032;-93
2023/12/28 05:05:58;;;;;;;3.78;1.58;;;10.60;99.90;;;;;;4959206;28;20032;-91
2023/12/28 05:08:23;;;;;;;5.13;1.73;;;10.60;99.90;;;;;;4964772;28;20051;-93
2023/12/28 05:10:51;;;;;;;4.85;1.60;;;10.50;99.90;;;;;;4958466;28;20067;-94
2023/12/28 05:13:17;;;;;;;4.88;1.60;;;10.50;99.90;;;;;;4960158;28;20039;-94
2023/12/28 05:15:42;;;;;;;1.63;1.25;;;10.50;99.90;;;;;;4978143;28;20038;-94
2023/12/28 05:18:09;;;;;;;5.38;1.70;;;10.50;99.90;;;;;;4958055;28;20031;-93
2023/12/28 05:20:34;;;;;;;3.72;1.50;;;10.50;99.90;;;;;;4959747;28;21195;-92
2023/12/28 05:23:03;;;;;;;3.95;1.58;;;10.50;99.90;;;;;;4957427;28;20345;-94
2023/12/28 05:25:28;;;;;;;7.03;1.48;;;10.50;99.90;;;;;;4958286;28;20030;-95
2023/12/28 05:27:54;;;;;;;4.78;1.80;;;10.50;99.90;;;;;;4958781;28;20023;-90
2023/12/28 05:30:22;;;;;;;3.83;1.42;;;10.50;99.90;;;;;;4959561;28;20058;-92
2023/12/28 05:32:49;;;;;;;4.03;1.38;;;10.50;99.90;;;;;;4959599;28;20109;-93
2023/12/28 05:35:17;;;;;;;3.45;1.50;;;10.50;99.90;;;;;;4955356;28;20042;-93
2023/12/28 05:37:43;;;;;;;;;;;10.50;99.90;;;;;;4962590;28;20027;-94
2023/12/28 05:40:09;;;;;;;5.88;1.45;;;10.50;99.90;;;;;;4960339;28;19926;-94
2023/12/28 05:42:35;;;;;;;6.50;1.77;;;10.50;99.90;;;;;;4958730;28;20066;-94
2023/12/28 05:45:00;;;;;;;5.82;1.17;;;10.50;99.90;;;;;;4973097;28;20126;-96
2023/12/28 05:47:26;;;;;;;4.53;1.40;;;10.50;99.90;;;;;;4958218;28;20048;-95
2023/12/28 05:49:52;;;;;;;4.50;1.50;;;10.50;99.90;;;;;;4962419;28;20041;-93
2023/12/28 05:52:19;;;;;;;2.65;1.33;;;10.60;99.90;;;;;;4957671;28;20023;-93
2023/12/28 05:54:45;;;;;;;3.13;1.85;;;10.50;99.90;;;;;;4951891;28;20043;-92
2023/12/28 05:57:11;;;;;;;4.88;1.60;;;10.60;99.90;;;;;;4941895;28;20085;-94
2023/12/28 05:59:40;;;;;;;3.60;1.20;;;10.60;99.90;;;;;;4960341;28;20027;-96
2023/12/28 06:02:06;;;;;;;3.58;1.42;;;10.60;99.90;;;;;;4958217;28;20053;-94
2023/12/28 06:04:33;;;;;;;7.43;1.55;;;10.60;99.90;;;;;;4958460;28;20035;-96
2023/12/28 06:06:58;;;;;;;3.28;1.30;;;10.60;99.90;;;;;;4955204;28;20074;-92
2023/12/28 06:09:24;;;;;;;4.82;1.42;;;10.60;99.90;;;;;;4953573;28;20019;-94
2023/12/28 06:11:50;;;;;;;5.13;1.10;;;10.70;99.90;;;;;;4951541;28;20047;-94
2023/12/28 06:14:15;;;;;;;2.80;1.20;;;10.70;99.90;;;;;;4960584;28;20046;-93
2023/12/28 06:16:45;;;;;;;6.07;1.30;;;10.70;99.90;;;;;;4966078;28;20225;-96
2023/12/28 06:19:12;;;;;;;5.63;1.10;;;10.80;99.90;;;;;;4966067;28;20035;-95
2023/12/28 06:21:38;;;;;;;9.57;1.55;;;10.80;99.90;;;;;;4966350;28;20100;-95
2023/12/28 06:24:05;;;;;;;4.18;1.40;;;10.80;99.90;;;;;;4956783;28;20035;-95
2023/12/28 06:26:31;;;;;;;4.15;1.38;;;10.80;99.90;;;;;;4946283;28;20038;-95
2023/12/28 06:28:57;;;;;;;4.47;1.50;;;10.80;99.90;;;;;;4948464;28;20036;-94
2023/12/28 06:31:23;;;;;;;7.72;1.40;;;10.80;99.90;;;;;;4953326;28;20043;-94
2023/12/28 06:33:48;;;;;;;3.35;1.23;;;10.80;99.90;;;;;;4954370;28;20048;-94
2023/12/28 06:36:14;;;;;;;5.38;1.30;;;10.90;99.90;;;;;;4955885;28;20044;-94
2023/12/28 06:38:40;;;;;;;11.13;1.67;;;10.80;99.90;;;;;;4954825;28;20077;-95
2023/12/28 06:41:12;;;;;;;6.10;1.50;;;10.80;99.90;;;;;;4953518;28;20023;-96
2023/12/28 06:43:40;;;;;;;4.47;1.98;;;10.80;99.90;;;;;;4948774;28;20036;-96
2023/12/28 06:46:08;;;;;;;7.63;2.30;;;10.80;99.90;;;;;;4956576;28;20086;-94
2023/12/28 06:48:34;;;;;;;2.50;1.35;;;10.80;99.90;;;;;;4955370;28;20066;-95
2023/12/28 06:51:00;;;;;;;4.03;1.17;;;10.70;99.90;;;;;;4956510;28;20044;-96
2023/12/28 06:53:27;;;;;;;5.72;1.17;;;10.80;99.90;;;;;;4956452;28;20074;-96
2023/12/28 06:55:53;;;;;;;3.53;1.30;;;10.70;99.90;;;;;;4957433;28;20141;-90
2023/12/28 06:58:18;;;;;;;2.88;1.00;;;10.80;99.90;;;;;;4954300;28;20039;-95
2023/12/28 07:00:44;;;;;;;2.53;0.93;;;10.80;99.90;;;;;;4955261;28;20038;-94
2023/12/28 07:03:10;;;;;;;3.92;1.20;;;10.70;99.90;;;;;;4955906;28;20378;-96
2023/12/28 07:05:35;;;;;;;6.55;1.30;;;10.70;99.90;;;;;;4954402;28;20031;-92
2023/12/28 07:08:01;;;;;;;4.53;1.05;;;10.70;99.90;;;;;;4952625;28;20043;-95
2023/12/28 07:10:27;;;;;;;6.97;1.20;;;10.70;99.90;;;;;;4964389;28;20100;-95
2023/12/28 07:12:52;;;;;;;7.80;1.83;;;10.70;99.90;;;;;;4950225;28;22094;-93
2023/12/28 07:15:20;;;;;;;4.90;1.27;;;10.70;99.90;;;;;;4950970;28;20030;-96
2023/12/28 07:17:45;;;;;;;9.23;2.85;;;10.80;99.90;;;;;;4957993;28;20442;-96
2023/12/28 07:20:12;;;;;;;3.50;1.65;;;10.80;99.90;;;;;;4955562;28;20030;-94
2023/12/28 07:22:38;;;;;;;7.00;1.23;;;10.80;99.90;;;;;;4954786;28;20043;-93
2023/12/28 07:25:06;;;;;;;4.78;1.33;;;10.70;99.90;;;;;;4956105;28;20123;-93
2023/12/28 07:27:34;;;;;;;2.20;1.10;;;10.80;99.90;;;;;;4950202;28;20027;-94
2023/12/28 07:30:01;;;;;;;3.95;1.27;;;10.80;99.90;;;;;;4952148;28;20044;-94
2023/12/28 07:32:28;;;;;;;4.32;1.27;;;10.80;99.90;;;;;;4944406;28;20284;-96
2023/12/28 07:34:54;;;;;;;4.25;1.67;;;10.80;99.90;;;;;;4954301;28;20035;-93
2023/12/28 07:37:21;;;;;;;2.80;1.40;;;10.80;99.90;;;;;;4966500;28;20054;-96
2023/12/28 07:39:47;;;;;;;9.85;1.67;;;10.80;99.90;;;;;;4965432;28;20036;-95
2023/12/28 07:42:16;;;;;;;6.47;1.20;;;10.80;99.90;;;;;;4946928;28;20020;-93
2023/12/28 07:44:45;;;;;;;6.80;1.63;;;10.80;99.90;;;;;;4963718;28;20027;-94
2023/12/28 07:47:12;;;;;;;3.60;1.45;;;10.80;99.90;;;;;;4951769;28;20036;-93
2023/12/28 07:49:40;;;;;;;4.28;1.20;;;10.80;99.90;;;;;;4954308;28;20038;-95
2023/12/28 07:52:08;;;;;;;2.40;1.27;;;10.90;99.90;;;;;;4950008;28;20086;-93
2023/12/28 07:54:33;;;;;;;5.30;1.38;;;10.90;99.90;;;;;;4952343;28;20027;-93
2023/12/28 07:56:59;;;;;;;2.72;1.08;;;10.90;99.90;;;;;;4950066;28;20323;-95
2023/12/28 07:59:25;;;;;;;6.05;1.52;;;10.90;99.90;;;;;;4953396;28;20105;-92
2023/12/28 08:01:51;;;;;;;3.65;0.90;;;10.90;99.90;;;;;;4944665;28;20043;-93
2023/12/28 08:04:17;;;;;;;1.65;0.98;;;10.90;99.90;;;;;;4935591;28;20055;-94
2023/12/28 08:06:42;;;;;;;3.42;1.08;;;10.90;99.90;;;;;;4971160;28;20045;-93
2023/12/28 08:09:09;;;;;;;8.02;1.23;;;10.90;99.90;;;;;;4955217;28;20089;-96
2023/12/28 08:11:37;;;;;;;6.43;1.57;;;10.90;99.90;;;;;;4954016;28;20043;-93
2023/12/28 08:14:03;;;;;;;5.53;1.20;;;11.00;99.90;;;;;;4943589;28;20293;-93
2023/12/28 08:16:29;;;;;;;8.00;1.48;;;11.00;99.90;;;;;;4944851;28;20038;-93
2023/12/28 08:18:57;;;;;;;6.38;1.10;;;11.00;99.90;;;;;;4946166;28;20012;-92
2023/12/28 08:21:23;;;;;;;4.97;1.40;;;10.90;99.90;;;;;;4948655;28;20119;-93
2023/12/28 08:23:48;;;;;;;6.60;1.00;;;10.90;99.90;;;;;;4945853;28;20460;-93
2023/12/28 08:26:19;;;;;;;5.30;1.77;;;11.00;99.90;;;;;;4941755;28;20245;-93
2023/12/28 08:28:47;;;;;;;4.95;1.15;;;11.00;99.90;;;;;;4957009;28;20023;-92
2023/12/28 08:31:14;;;;;;;4.47;1.13;;;10.90;99.90;;;;;;4937615;28;20031;-93
2023/12/28 08:33:41;;;;;;;3.23;1.20;;;10.90;99.90;;;;;;4947018;28;20027;-95
2023/12/28 08:36:08;;;;;;;3.83;1.02;;;11.00;99.90;;;;;;4945249;28;20015;-93
2023/12/28 08:38:34;;;;;;;4.53;1.35;;;10.90;99.90;;;;;;4958941;28;20134;-93
2023/12/28 08:41:08;;;;;;;3.67;1.17;;;11.00;99.90;;;;;;4940835;28;20100;-93
2023/12/28 08:43:36;;;;;;;4.55;1.15;;;10.90;99.90;;;;;;4952915;28;20015;-95
2023/12/28 08:46:01;;;;;;;4.50;1.20;;;11.00;99.90;;;;;;4936889;28;20048;-93
2023/12/28 08:48:27;;;;;;;3.65;1.20;;;11.00;99.90;;;;;;4955577;28;20039;-92
2023/12/28 08:50:55;;;;;;;2.75;1.20;;;11.00;99.90;;;;;;4955104;28;20050;-96
2023/12/28 08:53:20;;;;;;;5.43;1.10;;;10.90;99.90;;;;;;4940633;28;20031;-92
2023/12/28 08:55:48;;;;;;;3.95;1.10;;;11.00;99.90;;;;;;4955343;28;20028;-93
2023/12/28 08:58:14;;;;;;;6.32;1.27;;;11.00;99.90;;;;;;4951047;28;20110;-93
2023/12/28 09:00:40;;;;;;;4.43;1.48;;;11.00;99.90;;;;;;4943433;28;20039;-91
2023/12/28 09:03:06;;;;;;;3.72;1.10;;;11.00;99.90;;;;;;4933830;28;20050;-93
2023/12/28 09:05:31;;;;;;;6.93;1.50;;;11.00;99.90;;;;;;4934652;28;20073;-93
2023/12/28 09:07:59;;;;;;;3.88;1.33;;;11.10;99.90;;;;;;4955295;28;20043;-95
2023/12/28 09:10:27;;;;;;;4.90;1.15;;;11.00;99.90;;;;;;4954947;28;20035;-92
2023/12/28 09:12:52;;;;;;;6.13;1.23;;;11.00;99.90;;;;;;4942956;28;20131;-95
2023/12/28 09:15:18;;;;;;;4.45;1.40;;;11.10;99.90;;;;;;4941684;28;20118;-94
2023/12/28 09:17:44;;;;;;;8.05;1.17;;;11.10;99.90;;;;;;4950287;28;20030;-91
2023/12/28 09:20:11;;;;;;;4.70;1.00;;;11.10;99.90;;;;;;4936613;28;20940;-91
2023/12/28 09:22:40;;;;;;;4.57;1.23;;;11.10;99.90;;;;;;4929880;28;20043;-92
2023/12/28 09:25:08;;;;;;;2.33;0.98;;;11.10;99.90;;;;;;4952347;28;20091;-91
2023/12/28 09:27:34;;;;;;;6.15;1.45;;;11.10;99.90;;;;;;4955653;28;20433;-92
2023/12/28 09:30:00;;;;;;;4.30;1.27;;;11.20;99.90;;;;;;4938690;28;20037;-91
2023/12/28 09:32:25;;;;;;;7.68;1.40;;;11.20;99.90;;;;;;4936390;28;20035;-94
2023/12/28 09:34:51;;;;;;;4.95;1.73;;;11.20;99.90;;;;;;4944418;28;20101;-95
2023/12/28 09:37:17;;;;;;;7.45;1.48;;;11.20;99.90;;;;;;4947213;28;20696;-91
2023/12/28 09:39:42;;;;;;;3.58;1.10;;;11.20;99.90;;;;;;4942178;28;20039;-94
2023/12/28 09:42:21;;;;;;;5.53;1.50;;;11.20;99.90;;;;;;4954619;28;20040;-92
2023/12/28 09:44:49;;;;;;;5.13;1.40;;;11.30;99.90;;;;;;4955927;28;20032;-94
2023/12/28 09:47:15;;;;;;;7.15;1.48;;;11.30;99.90;;;;;;4927886;28;20632;-93
2023/12/28 09:49:42;;;;;;;11.57;1.55;;;11.30;99.90;;;;;;4945501;28;20039;-93
2023/12/28 09:52:09;;;;;;;4.15;1.52;;;11.30;99.90;;;;;;4942524;28;20034;-93
2023/12/28 09:54:35;;;;;;;4.22;1.08;;;11.30;99.90;;;;;;4970448;28;20027;-94
2023/12/28 09:57:01;;;;;;;6.28;1.70;;;11.30;99.90;;;;;;4957325;28;20027;-93
2023/12/28 09:59:29;;;;;;;4.43;2.05;;;11.20;99.90;;;;;;5040023;28;20533;-94
2023/12/28 10:01:55;;;;;;;;;;;11.30;99.90;;;;;;4964111;28;20027;-93
2023/12/28 10:04:21;;;;;;;5.03;1.42;;;11.30;99.90;;;;;;4968161;28;19977;-93
2023/12/28 10:06:47;;;;;;;10.55;1.75;;;11.30;99.90;;;;;;4970943;28;20023;-91
2023/12/28 10:09:13;;;;;;;7.13;1.35;;;11.30;99.90;;;;;;4958830;28;20028;-92
2023/12/28 10:11:39;;;;;;;4.63;1.80;;;11.40;99.90;;;;;;4964348;28;20107;-93
2023/12/28 10:14:06;;;;;;;15.20;1.92;;;11.40;99.90;;;;;;4967264;28;20031;-92
2023/12/28 10:16:32;;;;;;;3.90;1.20;;;11.40;99.90;;;;;;4952103;28;20114;-94
2023/12/28 10:18:58;;;;;;;14.35;1.67;;;11.50;99.90;;;;;;4951118;28;20039;-94
2023/12/28 10:21:24;;;;;;;3.03;1.77;;;11.60;99.90;;;;;;4939587;28;20043;-93
2023/12/28 10:23:51;;;;;;;10.32;1.85;;;11.60;99.90;;;;;;4951963;28;20093;-93
2023/12/28 10:26:19;;;;;;;4.18;1.05;;;11.60;99.90;;;;;;4953076;28;20028;-93
2023/12/28 10:28:44;;;;;;;8.45;1.65;;;11.60;99.90;;;;;;4948738;28;20073;-92
2023/12/28 10:31:10;;;;;;;14.18;2.03;;;11.70;99.90;;;;;;4950296;28;20075;-94
2023/12/28 10:33:36;;;;;;;4.43;1.58;;;11.70;99.90;;;;;;4962197;28;20027;-91
2023/12/28 10:36:06;;;;;;;5.72;1.85;;;11.80;99.90;;;;;;4960919;28;20027;-94
2023/12/28 10:38:36;;;;;;;9.30;1.70;;;12.00;99.90;;;;;;4951665;29;20031;-94
2023/12/28 10:41:07;;;;;;;6.38;1.35;;;12.00;99.90;;;;;;4954690;28;20058;-92
2023/12/28 10:43:47;;;;;;;10.98;2.45;;;12.00;99.90;;;;;;4957949;28;20031;-94
2023/12/28 10:46:27;;;;;;;12.35;2.75;;;12.00;99.90;;;;;;4968985;28;20032;-92
2023/12/28 10:48:59;;;;;;;9.13;2.47;;;12.10;99.90;;;;;;4953281;28;20032;-92
2023/12/28 10:51:29;;;;;;;12.73;2.20;;;12.10;99.90;;;;;;4950799;28;20042;-91
2023/12/28 10:54:13;;;;;;;7.72;1.75;;;12.00;99.90;;;;;;4950732;28;20027;-93
2023/12/28 10:56:46;;;;;;;6.47;1.75;;;12.00;99.90;;;;;;4952842;28;20051;-93
2023/12/28 10:59:30;;;;;;;6.43;1.70;;;12.00;99.90;;;;;;4953295;28;20031;-94
2023/12/28 11:01:58;;;;;;;5.65;1.58;;;12.00;99.90;;;;;;4980837;28;20123;-93
2023/12/28 11:04:44;;;;;;;7.85;1.58;;;11.90;99.90;;;;;;4944713;28;20034;-93
2023/12/28 11:07:13;;;;;;;14.00;1.98;;;11.90;99.90;;;;;;4956475;28;20031;-90
2023/12/28 11:09:42;;;;;;;6.97;1.20;;;11.90;99.90;;;;;;4944846;28;20031;-92
2023/12/28 11:12:11;;;;;;;7.95;1.70;;;11.90;99.90;;;;;;4950775;28;20027;-91
2023/12/28 11:14:41;;;;;;;13.07;2.10;;;11.90;99.90;;;;;;4944682;28;20265;-92
2023/12/28 11:17:09;;;;;;;15.60;1.98;;;11.90;99.90;;;;;;4951868;28;20027;-92
2023/12/28 11:19:35;;;;;;;5.43;1.70;;;11.90;99.90;;;;;;4965742;28;20023;-89
2023/12/28 11:22:06;;;;;;;13.32;1.92;;;12.00;99.90;;;;;;4962861;28;20032;-93
2023/12/28 11:24:33;;;;;;;10.43;2.30;;;11.90;99.90;;;;;;5032624;28;20117;-93
2023/12/28 11:26:58;;;;;;;15.93;3.67;;;12.00;99.90;;;;;;4951467;28;20038;-92
2023/12/28 11:29:24;;;;;;;15.65;4.20;;;12.00;99.90;;;;;;4953034;28;20036;-93
2023/12/28 11:32:03;;;;;;;9.20;3.30;;;11.90;99.90;;;;;;4949352;28;20161;-91
2023/12/28 11:34:30;;;;;;;8.90;1.98;;;11.90;99.90;;;;;;4946809;28;20027;-92
2023/12/28 11:36:57;;;;;;;10.48;1.60;;;11.90;99.90;;;;;;4948547;28;20024;-92
2023/12/28 11:39:33;;;;;;;11.40;2.23;;;11.90;99.90;;;;;;4949900;28;20028;-93
2023/12/28 11:42:08;;;;;;;13.10;1.80;;;11.90;99.90;;;;;;4963216;28;20041;-92
2023/12/28 11:44:39;;;;;;;13.70;1.90;;;11.90;99.90;;;;;;4945906;28;20027;-92
2023/12/28 11:47:27;;;;;;;6.82;1.60;;;11.90;99.90;;;;;;4952099;28;20027;-93
2023/12/28 11:49:54;;;;;;;;;;;11.90;99.90;;;;;;4963379;28;20476;-91
2023/12/28 11:52:31;;;;;;;12.00;1.80;;;11.90;99.90;;;;;;4948591;29;19906;-93
2023/12/28 11:55:00;;;;;;;10.57;2.15;;;11.90;99.90;;;;;;4945971;28;20042;-92
2023/12/28 11:57:26;;;;;;;9.73;1.80;;;11.90;99.90;;;;;;4949138;28;20205;-93
2023/12/28 11:59:59;;;;;;;9.18;1.77;;;11.90;99.90;;;;;;4949853;29;20034;-92
2023/12/28 12:02:26;;;;;;;8.32;1.50;;;11.90;99.90;;;;;;4949168;28;20035;-93
2023/12/28 12:04:52;;;;;;;11.85;2.92;;;11.90;99.90;;;;;;4950358;29;20429;-91
2023/12/28 12:07:22;;;;;;;13.48;1.80;;;11.90;99.90;;;;;;4949560;28;20031;-93
2023/12/28 12:09:47;;;;;;;9.13;1.63;;;11.90;99.90;;;;;;4950701;28;20055;-91
2023/12/28 12:12:18;;;;;;;10.18;2.13;;;11.90;99.90;;;;;;4943652;28;20093;-92
2023/12/28 12:14:44;;;;;;;9.93;1.92;;;11.90;99.90;;;;;;4949762;28;20028;-93
2023/12/28 12:17:10;;;;;;;11.25;1.48;;;12.00;99.90;;;;;;4945070;29;20027;-91
2023/12/28 12:19:36;;;;;;;13.05;2.70;;;12.00;99.90;;;;;;4960146;28;20039;-91
2023/12/28 12:22:01;;;;;;;10.00;1.77;;;12.00;99.90;;;;;;4932967;29;20126;-89
2023/12/28 12:24:27;;;;;;;13.48;1.80;;;12.10;99.90;;;;;;4952414;28;20050;-90
2023/12/28 12:26:57;;;;;;;12.60;1.90;;;12.10;99.90;;;;;;4953036;28;20032;-91
2023/12/28 12:29:22;;;;;;;8.27;1.52;;;12.10;99.90;;;;;;4948993;28;20042;-91
2023/12/28 12:31:48;;;;;;;7.32;1.85;;;12.10;99.90;;;;;;4948796;28;20027;-93
2023/12/28 12:34:19;;;;;;;7.75;1.52;;;12.10;99.90;;;;;;4950284;28;20055;-92
2023/12/28 12:36:45;;;;;;;14.88;2.05;;;12.20;99.90;;;;;;4952119;28;20114;-89
2023/12/28 12:39:13;;;;;;;6.72;1.60;;;12.20;99.90;;;;;;4949162;28;20042;-92
2023/12/28 12:41:41;;;;;;;11.88;2.28;;;12.20;99.90;;;;;;4946826;28;20042;-89
2023/12/28 12:44:11;;;;;;;9.68;2.53;;;12.20;99.90;;;;;;4951673;28;20066;-90
2023/12/28 12:46:36;;;;;;;10.10;1.38;;;12.30;99.90;;;;;;4954627;28;20033;-89
2023/12/28 12:49:07;;;;;;;8.52;1.75;;;12.40;99.90;;;;;;4949246;28;20154;-92
2023/12/28 12:51:35;;;;;;;13.77;3.80;;;12.40;99.90;;;;;;4962626;28;20035;-91